Time;durP1;ratioP1;P1;durP2;ratioP2;P2;SDS_P1;SDS_P2;PMS_P1;PMS_P2;Temp;Humidity;BMP_temperature;BMP_pressure;BME280_temperature;BME280_humidity;BME280_pressure;Samples;Min_cycle;Max_cycle;Signal;HPM_P1;HPM_P2
2022/01/17 00:01:33;;;;;;;51.60;28.73;;;;;;;4.91;100.00;102997.34;5060937;28;20032;-54
2022/01/17 00:03:59;;;;;;;52.22;28.63;;;;;;;4.91;100.00;103002.84;5054185;28;20036;-54
2022/01/17 00:06:25;;;;;;;53.08;30.73;;;;;;;4.85;100.00;103029.22;5054715;28;20255;-52
2022/01/17 00:08:50;;;;;;;52.97;30.05;;;;;;;4.83;100.00;103023.94;5054868;28;20036;-54
2022/01/17 00:11:16;;;;;;;48.78;28.83;;;;;;;4.86;100.00;103024.56;5054244;28;20044;-54
2022/01/17 00:13:44;;;;;;;48.00;27.13;;;;;;;4.90;100.00;103021.19;5053110;28;20025;-52
2022/01/17 00:21:02;;;;;;;47.72;27.00;;;;;;;4.92;100.00;103020.97;5053555;28;20060;-53
2022/01/17 00:23:27;;;;;;;48.58;25.23;;;;;;;4.94;100.00;103022.44;5054839;28;20041;-54
2022/01/17 00:25:53;;;;;;;46.13;24.33;;;;;;;4.95;100.00;103018.66;5054786;28;20024;-54
2022/01/17 00:28:18;;;;;;;44.05;25.23;;;;;;;4.96;100.00;103011.25;5054402;28;20037;-52
2022/01/17 00:30:44;;;;;;;46.40;24.95;;;;;;;4.98;100.00;103007.22;5054236;28;20150;-52
2022/01/17 00:33:09;;;;;;;41.92;24.85;;;;;;;4.96;100.00;103005.78;5054541;28;20109;-49
2022/01/17 00:35:35;;;;;;;42.58;24.02;;;;;;;4.95;100.00;103009.56;5054183;28;20442;-51
2022/01/17 00:38:00;;;;;;;42.75;24.83;;;;;;;4.93;100.00;103012.53;5054629;28;20025;-51
2022/01/17 00:40:25;;;;;;;39.85;22.70;;;;;;;4.96;100.00;103011.25;5054410;28;20029;-49
2022/01/17 00:42:50;;;;;;;41.83;23.77;;;;;;;4.93;100.00;103011.69;5054504;28;20029;-53
2022/01/17 00:45:19;;;;;;;43.58;23.33;;;;;;;4.92;100.00;103016.34;5054624;28;20040;-52
2022/01/17 00:47:45;;;;;;;42.15;23.55;;;;;;;4.97;100.00;103018.44;5054004;28;20472;-50
2022/01/17 00:50:11;;;;;;;40.80;22.73;;;;;;;4.94;100.00;103011.47;5053902;28;20106;-49
2022/01/17 00:52:36;;;;;;;40.08;22.77;;;;;;;4.96;100.00;103012.09;5054148;28;20397;-51
2022/01/17 00:55:02;;;;;;;42.03;22.48;;;;;;;5.00;100.00;103018.00;5054478;28;20029;-50
2022/01/17 00:57:27;;;;;;;41.28;23.17;;;;;;;4.95;100.00;103018.66;5054238;28;20418;-52
2022/01/17 00:59:53;;;;;;;38.70;21.63;;;;;;;4.96;100.00;103019.50;5054285;28;20036;-50
2022/01/17 01:02:19;;;;;;;41.17;22.13;;;;;;;4.99;100.00;103028.13;5053636;28;20017;-52
2022/01/17 01:04:45;;;;;;;39.38;22.02;;;;;;;5.00;100.00;103023.50;5054681;28;20029;-50
2022/01/17 01:07:10;;;;;;;41.97;23.33;;;;;;;5.00;100.00;103035.31;5053913;28;20040;-50
2022/01/17 01:09:44;;;;;;;43.97;23.20;;;;;;;4.99;100.00;103035.53;5053487;28;20384;-53
2022/01/17 01:12:10;;;;;;;45.65;24.42;;;;;;;4.99;100.00;103038.28;5053752;28;20259;-50
2022/01/17 01:14:35;;;;;;;40.70;22.25;;;;;;;5.00;100.00;103046.28;5052907;28;20562;-49
2022/01/17 01:17:07;;;;;;;39.97;23.50;;;;;;;4.98;100.00;103039.31;5053844;28;20047;-51
2022/01/17 01:19:40;;;;;;;41.00;22.30;;;;;;;4.97;100.00;103029.41;5054089;28;20025;-49
2022/01/17 01:30:00;;;;;;;37.88;19.98;;;;;;;4.97;100.00;103032.97;5053628;28;20157;-51
2022/01/17 01:32:34;;;;;;;35.33;18.35;;;;;;;4.95;100.00;103032.38;5053635;28;20025;-51
2022/01/17 01:35:01;;;;;;;35.03;19.67;;;;;;;4.96;100.00;103028.53;5054160;28;20044;-52
2022/01/17 01:37:26;;;;;;;36.80;18.92;;;;;;;5.00;100.00;103026.25;5052027;28;20396;-50
2022/01/17 01:39:53;;;;;;;37.78;19.45;;;;;;;4.98;100.00;103031.94;5053114;28;20029;-51
2022/01/17 01:42:20;;;;;;;35.67;19.83;;;;;;;4.98;100.00;103047.56;5053250;28;20029;-51
2022/01/17 01:44:50;;;;;;;34.92;19.30;;;;;;;4.99;100.00;103054.72;5053120;28;20392;-51
2022/01/17 01:47:15;;;;;;;36.50;19.15;;;;;;;4.99;100.00;103054.72;5053098;28;20020;-51
2022/01/17 01:49:40;;;;;;;36.80;18.20;;;;;;;4.99;100.00;103054.72;5053210;28;20059;-51
2022/01/17 01:52:06;;;;;;;35.72;18.15;;;;;;;5.01;100.00;103049.84;5053333;28;20020;-52
2022/01/17 01:54:31;;;;;;;36.47;18.10;;;;;;;5.01;100.00;103038.88;5052502;28;20533;-52
2022/01/17 01:56:57;;;;;;;37.90;19.38;;;;;;;5.00;100.00;103032.56;5053171;28;20025;-51
2022/01/17 01:59:24;;;;;;;37.70;19.58;;;;;;;4.96;100.00;103041.44;5053201;28;20033;-52
2022/01/17 02:01:51;;;;;;;34.35;19.33;;;;;;;4.94;100.00;103043.53;5052735;28;20491;-53
2022/01/17 02:04:17;;;;;;;36.90;19.17;;;;;;;4.89;100.00;103048.84;5052587;28;20024;-53
2022/01/17 02:06:42;;;;;;;36.58;19.60;;;;;;;4.82;100.00;103046.94;5052759;28;20037;-53
2022/01/17 02:09:08;;;;;;;33.08;18.55;;;;;;;4.74;100.00;103049.91;5052666;28;20031;-54
2022/01/17 02:11:35;;;;;;;37.03;19.58;;;;;;;4.65;100.00;103049.28;5052931;28;20384;-53
2022/01/17 02:14:02;;;;;;;34.50;19.00;;;;;;;4.58;100.00;103044.84;5051617;28;20460;-54
2022/01/17 02:16:27;;;;;;;36.08;19.70;;;;;;;4.51;100.00;103053.06;5052834;28;20072;-52
2022/01/17 02:18:53;;;;;;;37.65;18.23;;;;;;;4.44;100.00;103053.06;5051666;28;20044;-52
2022/01/17 02:21:31;;;;;;;34.60;18.63;;;;;;;4.37;100.00;103049.47;5051846;28;20423;-49
2022/01/17 02:23:57;;;;;;;32.72;18.92;;;;;;;4.27;100.00;103049.91;5052661;28;20029;-55
2022/01/17 02:26:22;;;;;;;33.33;17.85;;;;;;;4.27;100.00;103046.31;5052689;28;20124;-50
2022/01/17 02:28:50;;;;;;;33.78;18.13;;;;;;;4.14;100.00;103034.31;5052728;28;20430;-54
2022/01/17 02:31:16;;;;;;;34.10;18.05;;;;;;;4.13;100.00;103040.84;5052045;28;20108;-50
2022/01/17 02:33:43;;;;;;;41.38;20.02;;;;;;;4.09;100.00;103053.25;5052654;28;20120;-50
2022/01/17 02:36:09;;;;;;;37.85;19.00;;;;;;;4.06;100.00;103050.94;5052330;28;20488;-53
2022/01/17 02:38:38;;;;;;;33.92;17.58;;;;;;;4.02;100.00;103050.47;5052467;28;20025;-51
2022/01/17 02:41:03;;;;;;;33.97;18.73;;;;;;;3.97;100.00;103052.19;5052695;28;20029;-53
2022/01/17 02:43:30;;;;;;;34.05;18.08;;;;;;;3.94;100.00;103052.59;5051693;28;20376;-53
2022/01/17 02:48:36;;;;;;;36.00;18.90;;;;;;;3.88;100.00;103054.25;5052035;28;20037;-50
2022/01/17 02:51:02;;;;;;;37.65;19.00;;;;;;;3.82;100.00;103042.22;5052530;28;20496;-53
2022/01/17 02:53:28;;;;;;;33.33;17.95;;;;;;;3.81;100.00;103048.75;5052292;28;20108;-50
2022/01/17 02:55:56;;;;;;;34.45;17.60;;;;;;;3.74;100.00;103054.19;5052442;28;20056;-53
2022/01/17 02:58:24;;;;;;;34.75;17.85;;;;;;;3.83;100.00;103062.22;5052223;28;20492;-55
2022/01/17 03:00:53;;;;;;;32.97;17.92;;;;;;;3.77;100.00;103047.50;5052428;28;20037;-52
2022/01/17 03:03:24;;;;;;;32.65;17.00;;;;;;;3.77;100.00;103049.38;5052572;28;20029;-52
2022/01/17 03:05:50;;;;;;;34.55;17.52;;;;;;;3.80;100.00;103058.00;5052484;28;20526;-54
2022/01/17 03:08:17;;;;;;;36.20;16.88;;;;;;;3.80;100.00;103055.28;5051537;28;20058;-51
2022/01/17 03:10:46;;;;;;;34.80;17.35;;;;;;;3.77;100.00;103047.50;5051830;28;20039;-52
2022/01/17 03:13:25;;;;;;;29.58;16.40;;;;;;;3.73;100.00;103047.03;5051411;28;20033;-50
2022/01/17 03:15:57;;;;;;;32.90;16.20;;;;;;;3.68;100.00;103046.81;5051841;28;20100;-53
2022/01/17 03:18:24;;;;;;;28.98;15.38;;;;;;;3.65;100.00;103029.97;5051902;28;20498;-51
2022/01/17 03:20:49;;;;;;;32.00;16.10;;;;;;;3.61;100.00;103028.69;5051731;28;20035;-50
2022/01/17 03:23:15;;;;;;;31.40;16.08;;;;;;;3.59;100.00;103042.56;5052377;28;20017;-52
2022/01/17 03:25:40;;;;;;;32.22;15.45;;;;;;;3.55;100.00;103047.63;5052617;28;20036;-53
2022/01/17 03:28:06;;;;;;;32.03;15.40;;;;;;;3.50;100.00;103049.28;5051857;28;20468;-53
2022/01/17 03:30:33;;;;;;;31.20;15.35;;;;;;;3.48;100.00;103048.63;5051902;28;20029;-53
2022/01/17 03:33:00;;;;;;;31.60;15.10;;;;;;;3.47;100.00;103053.28;5050869;28;20032;-52
2022/01/17 03:35:25;;;;;;;30.67;14.98;;;;;;;3.45;100.00;103054.53;5051921;28;20473;-51
2022/01/17 03:37:51;;;;;;;26.58;13.73;;;;;;;3.47;100.00;103055.16;5055095;28;20052;-53
2022/01/17 03:40:16;;;;;;;31.45;14.65;;;;;;;3.45;100.00;103062.75;5055831;28;20078;-54
2022/01/17 03:42:41;;;;;;;30.45;14.88;;;;;;;3.41;100.00;103052.19;5055698;28;20064;-51
2022/01/17 03:45:07;;;;;;;28.42;14.77;;;;;;;3.36;100.00;103049.22;5054913;28;20025;-51
2022/01/17 03:47:34;;;;;;;30.50;14.85;;;;;;;3.37;100.00;103052.81;5055285;28;20506;-51
2022/01/17 03:49:59;;;;;;;26.45;13.68;;;;;;;3.41;100.00;103054.94;5054158;28;20056;-53
2022/01/17 03:52:24;;;;;;;29.23;13.88;;;;;;;3.37;100.00;103050.06;5055679;28;20430;-51
2022/01/17 03:54:50;;;;;;;31.90;13.40;;;;;;;3.32;100.00;103049.81;5055726;28;20037;-52
2022/01/17 03:57:15;;;;;;;30.55;13.75;;;;;;;3.29;100.00;103051.06;5055911;28;20527;-54
2022/01/17 03:59:40;;;;;;;30.23;13.95;;;;;;;3.28;100.00;103050.25;5055412;28;20044;-53
2022/01/17 04:02:06;;;;;;;30.63;13.30;;;;;;;3.26;100.00;103046.88;5054966;28;20082;-51
2022/01/17 04:04:31;;;;;;;28.80;13.00;;;;;;;3.25;100.00;103053.38;5054943;28;20512;-54
2022/01/17 04:06:56;;;;;;;31.08;13.75;;;;;;;3.21;100.00;103051.25;5055200;28;20104;-52
2022/01/17 04:09:22;;;;;;;25.60;13.15;;;;;;;3.22;100.00;103064.72;5054682;28;20171;-54
2022/01/17 04:11:47;;;;;;;28.73;13.55;;;;;;;3.22;100.00;103064.72;5055035;28;20357;-54
2022/01/17 04:14:12;;;;;;;28.55;12.30;;;;;;;3.23;100.00;103069.13;5055369;28;20033;-54
2022/01/17 04:16:38;;;;;;;30.98;13.73;;;;;;;3.21;100.00;103065.75;5054372;28;20108;-53
2022/01/17 04:19:03;;;;;;;29.17;12.45;;;;;;;3.21;100.00;103051.25;5054457;28;20460;-51
2022/01/17 04:21:34;;;;;;;26.30;13.05;;;;;;;3.12;100.00;103061.50;5054542;28;20029;-55
2022/01/17 04:23:59;;;;;;;26.73;12.68;;;;;;;3.14;100.00;103069.53;5055351;28;20079;-55
2022/01/17 04:26:25;;;;;;;27.08;12.85;;;;;;;3.12;100.00;103066.97;5054735;28;20437;-52
2022/01/17 04:28:50;;;;;;;28.00;12.45;;;;;;;3.07;100.00;103073.03;5054404;28;20025;-53
2022/01/17 04:31:15;;;;;;;28.95;12.60;;;;;;;3.05;100.00;103072.41;5054503;28;20033;-54
2022/01/17 04:33:41;;;;;;;30.05;13.10;;;;;;;3.00;100.00;103065.84;5054740;28;20079;-51
2022/01/17 04:36:08;;;;;;;27.40;12.35;;;;;;;3.00;100.00;103063.94;5054560;28;20025;-50
2022/01/17 04:38:34;;;;;;;26.85;11.60;;;;;;;3.02;100.00;103055.56;5054076;28;20044;-52
2022/01/17 04:41:03;;;;;;;26.73;11.13;;;;;;;3.00;100.00;103066.69;5055423;28;20468;-50
2022/01/17 04:43:45;;;;;;;25.15;11.60;;;;;;;2.95;100.00;103070.03;5054603;28;20021;-54
2022/01/17 04:46:11;;;;;;;27.88;11.57;;;;;;;2.88;100.00;103051.91;5054080;28;20036;-52
2022/01/17 04:48:37;;;;;;;26.15;11.25;;;;;;;2.94;100.00;103060.13;5053881;28;20057;-54
2022/01/17 04:51:04;;;;;;;25.42;10.18;;;;;;;2.96;100.00;103065.41;5053998;28;20045;-54
2022/01/17 04:53:31;;;;;;;26.73;10.77;;;;;;;2.97;100.00;103075.31;5054860;28;20035;-51
2022/01/17 04:55:57;;;;;;;25.15;10.52;;;;;;;2.97;100.00;103076.13;5054615;28;20496;-53
2022/01/17 04:58:22;;;;;;;25.02;10.60;;;;;;;2.96;100.00;103092.75;5054859;28;20181;-54
2022/01/17 05:00:48;;;;;;;29.90;10.85;;;;;;;2.97;100.00;103081.63;5054569;28;20064;-51
2022/01/17 05:03:21;;;;;;;24.88;10.90;;;;;;;2.95;100.00;103074.66;5053906;28;20052;-49
2022/01/17 05:05:47;;;;;;;25.52;10.77;;;;;;;3.00;100.00;103095.94;5054470;28;20048;-50
2022/01/17 05:08:14;;;;;;;24.52;9.73;;;;;;;3.06;100.00;103106.06;5052703;28;20123;-51
2022/01/17 05:10:41;;;;;;;24.85;9.77;;;;;;;3.12;100.00;103117.06;5053724;28;20032;-53
2022/01/17 05:13:08;;;;;;;25.85;9.90;;;;;;;3.14;100.00;103105.06;5053451;28;20025;-50
2022/01/17 05:15:37;;;;;;;28.58;9.77;;;;;;;3.16;100.00;103103.81;5053839;28;20537;-52
2022/01/17 05:20:35;;;;;;;21.38;8.93;;;;;;;3.22;100.00;103110.38;5054215;28;20396;-51
2022/01/17 05:23:01;;;;;;;25.45;10.38;;;;;;;3.24;100.00;103108.31;5053780;28;20025;-50
2022/01/17 05:25:26;;;;;;;24.40;9.57;;;;;;;3.24;100.00;103102.81;5054085;28;20024;-54
2022/01/17 05:27:51;;;;;;;23.52;10.27;;;;;;;3.24;100.00;103094.63;5054307;28;20033;-54
2022/01/17 05:30:19;;;;;;;26.20;10.50;;;;;;;3.20;100.00;103102.38;5053640;28;20079;-50
2022/01/17 05:32:45;;;;;;;21.45;9.60;;;;;;;3.20;100.00;103099.66;5054071;28;20024;-54
2022/01/17 05:35:11;;;;;;;24.17;9.40;;;;;;;3.17;100.00;103105.50;5053849;28;20139;-52
2022/01/17 05:37:37;;;;;;;26.33;9.75;;;;;;;3.10;100.00;103104.63;5053376;28;20529;-53
2022/01/17 05:40:05;;;;;;;23.20;8.98;;;;;;;3.03;100.00;103106.44;5053736;28;20538;-52
2022/01/17 05:42:30;;;;;;;22.08;8.93;;;;;;;3.03;100.00;103117.38;5053579;28;20024;-50
2022/01/17 05:44:56;;;;;;;22.75;9.00;;;;;;;3.02;100.00;103115.72;5053823;28;20025;-51
2022/01/17 05:47:22;;;;;;;23.77;9.77;;;;;;;2.96;100.00;103123.66;5053102;28;20044;-51
2022/01/17 05:49:47;;;;;;;21.90;9.07;;;;;;;2.95;100.00;103113.78;5053433;28;20052;-52
2022/01/17 05:52:12;;;;;;;22.15;9.57;;;;;;;2.92;100.00;103116.06;5053589;28;20024;-52
2022/01/17 05:54:39;;;;;;;24.40;10.50;;;;;;;2.88;100.00;103103.84;5053127;28;20128;-50
2022/01/17 05:57:05;;;;;;;23.58;10.63;;;;;;;2.84;100.00;103100.63;5053339;28;20029;-50
2022/01/17 05:59:31;;;;;;;23.50;9.90;;;;;;;2.89;100.00;103109.09;5052503;28;20078;-52
2022/01/17 06:01:56;;;;;;;22.23;9.57;;;;;;;2.93;100.00;103112.28;5053578;28;20113;-55
2022/01/17 06:04:22;;;;;;;24.20;9.90;;;;;;;2.91;100.00;103119.84;5053278;28;20079;-54
2022/01/17 06:06:48;;;;;;;23.70;10.02;;;;;;;2.93;100.00;103117.75;5053134;28;20052;-53
2022/01/17 06:09:13;;;;;;;21.98;10.00;;;;;;;2.89;100.00;103117.31;5053460;28;20103;-53
2022/01/17 06:11:39;;;;;;;24.20;9.70;;;;;;;2.89;100.00;103120.03;5053108;28;20112;-51
2022/01/17 06:14:05;;;;;;;25.58;10.52;;;;;;;2.88;100.00;103123.00;5053180;28;20025;-53
2022/01/17 06:16:30;;;;;;;28.05;10.75;;;;;;;2.86;100.00;103123.16;5053191;28;20025;-53
2022/01/17 06:18:56;;;;;;;24.98;10.63;;;;;;;2.87;100.00;103127.59;5053068;28;20482;-55
2022/01/17 06:21:22;;;;;;;24.45;10.63;;;;;;;2.88;100.00;103114.78;5053060;28;20035;-52
2022/01/17 06:23:47;;;;;;;27.08;11.60;;;;;;;2.87;100.00;103110.34;5052999;28;20021;-53
2022/01/17 06:26:13;;;;;;;27.20;11.15;;;;;;;2.86;100.00;103112.22;5053217;28;20021;-53
2022/01/17 06:28:38;;;;;;;25.17;10.80;;;;;;;2.86;100.00;103125.91;5053030;28;20032;-53
2022/01/17 06:31:04;;;;;;;26.95;11.35;;;;;;;2.83;100.00;103147.31;5052771;28;20029;-51
2022/01/17 06:33:29;;;;;;;25.02;11.10;;;;;;;2.87;100.00;103143.16;5052905;28;20024;-54
2022/01/17 06:35:54;;;;;;;24.95;11.25;;;;;;;2.82;100.00;103135.56;5052430;28;20501;-52
2022/01/17 06:38:19;;;;;;;25.42;11.25;;;;;;;2.83;100.00;103137.25;5051991;28;20032;-53
2022/01/17 06:40:45;;;;;;;27.27;11.25;;;;;;;2.77;100.00;103127.09;5051704;28;20036;-55
2022/01/17 06:43:10;;;;;;;27.00;12.73;;;;;;;2.77;100.00;103138.03;5052585;28;20024;-54
2022/01/17 06:45:36;;;;;;;26.65;11.68;;;;;;;2.75;100.00;103142.84;5052522;28;20028;-55
2022/01/17 06:48:02;;;;;;;24.48;11.48;;;;;;;2.75;100.00;103132.75;5052662;28;20090;-54
2022/01/17 06:50:28;;;;;;;25.60;10.73;;;;;;;2.86;100.00;103141.47;5052790;28;20492;-54
2022/01/17 06:52:53;;;;;;;27.45;13.00;;;;;;;2.88;100.00;103145.69;5051846;28;20384;-53
2022/01/17 06:55:19;;;;;;;24.52;10.93;;;;;;;2.92;100.00;103151.59;5052898;28;20072;-55
2022/01/17 06:57:44;;;;;;;28.70;11.68;;;;;;;2.97;100.00;103162.81;5052760;28;20100;-55
2022/01/17 07:00:11;;;;;;;23.90;11.77;;;;;;;3.03;100.00;103172.94;5052812;28;20052;-55
2022/01/17 07:02:37;;;;;;;24.33;11.75;;;;;;;3.06;100.00;103167.09;5052346;28;20029;-54
2022/01/17 07:05:04;;;;;;;30.92;12.70;;;;;;;2.99;100.00;103170.81;5052290;28;20108;-55
2022/01/17 07:07:29;;;;;;;25.95;11.65;;;;;;;2.98;100.00;103164.47;5046446;28;20026;-53
2022/01/17 07:09:54;;;;;;;26.80;12.38;;;;;;;2.98;100.00;103180.88;5029211;28;20036;-51
2022/01/17 07:12:19;;;;;;;27.33;12.35;;;;;;;3.02;100.00;103175.91;5032885;28;20033;-54
2022/01/17 07:14:45;;;;;;;26.10;12.10;;;;;;;2.97;100.00;103160.09;5034091;28;20033;-52
2022/01/17 07:17:11;;;;;;;26.40;12.93;;;;;;;2.94;100.00;103160.47;5033907;28;20044;-54
2022/01/17 07:19:38;;;;;;;29.08;13.40;;;;;;;2.90;100.00;103138.16;5032240;28;20044;-51
2022/01/17 07:22:08;;;;;;;28.65;13.18;;;;;;;2.84;100.00;103122.50;5033550;28;20435;-54
2022/01/17 07:24:33;;;;;;;27.55;13.35;;;;;;;2.94;100.00;103135.84;5033893;28;20468;-52
2022/01/17 07:26:59;;;;;;;28.65;14.13;;;;;;;2.93;100.00;103142.38;5034065;28;20033;-51
2022/01/17 07:29:26;;;;;;;26.23;13.32;;;;;;;2.92;100.00;103151.59;5034108;28;20108;-55
2022/01/17 07:31:52;;;;;;;28.10;14.43;;;;;;;2.89;100.00;103150.13;5034114;28;20065;-52
2022/01/17 07:34:17;;;;;;;30.75;14.52;;;;;;;2.94;100.00;103155.00;5034205;28;20507;-51
2022/01/17 07:36:42;;;;;;;31.42;13.93;;;;;;;2.95;100.00;103164.91;5034298;28;20075;-52
2022/01/17 07:39:08;;;;;;;28.05;13.82;;;;;;;2.94;100.00;103179.59;5034103;28;20026;-50
2022/01/17 07:41:33;;;;;;;28.83;15.30;;;;;;;2.95;100.00;103173.94;5034635;28;20035;-52
2022/01/17 07:44:01;;;;;;;27.63;14.20;;;;;;;2.96;100.00;103174.78;5034253;28;20021;-53
2022/01/17 07:46:37;;;;;;;32.22;15.40;;;;;;;2.96;100.00;103189.28;5034153;28;20041;-51
2022/01/17 07:49:10;;;;;;;29.17;14.57;;;;;;;2.95;100.00;103190.34;5033862;28;20504;-51
2022/01/17 07:51:44;;;;;;;28.77;14.38;;;;;;;3.04;100.00;103196.53;5034098;28;20488;-55
2022/01/17 07:54:13;;;;;;;29.42;14.18;;;;;;;2.99;100.00;103179.00;5033865;28;20039;-54
2022/01/17 07:56:40;;;;;;;32.03;15.65;;;;;;;3.02;100.00;103200.50;5033949;28;20905;-51
2022/01/17 07:59:07;;;;;;;29.83;14.82;;;;;;;3.02;100.00;103195.88;5033964;28;20033;-52
2022/01/17 08:01:34;;;;;;;29.23;14.57;;;;;;;3.09;100.00;103201.41;5033769;28;20029;-54
2022/01/17 08:03:59;;;;;;;27.63;14.02;;;;;;;3.08;100.00;103206.00;5033710;28;20041;-56
2022/01/17 08:06:24;;;;;;;31.75;15.82;;;;;;;3.11;100.00;103204.78;5037957;28;20028;-56
2022/01/17 08:08:50;;;;;;;31.58;14.90;;;;;;;3.14;100.00;103207.13;5055586;28;20104;-54
2022/01/17 08:11:15;;;;;;;30.67;15.45;;;;;;;3.17;100.00;103204.00;5055750;28;20060;-55
2022/01/17 08:13:41;;;;;;;31.52;15.00;;;;;;;3.23;100.00;103208.66;5055732;28;20379;-52
2022/01/17 08:16:06;;;;;;;30.10;14.40;;;;;;;3.25;100.00;103203.00;5055482;28;20033;-54
2022/01/17 08:18:32;;;;;;;29.83;14.25;;;;;;;3.33;100.00;103216.53;5055438;28;20468;-51
2022/01/17 08:20:58;;;;;;;31.05;15.15;;;;;;;3.36;100.00;103210.66;5055393;28;20033;-54
2022/01/17 08:23:23;;;;;;;30.55;14.85;;;;;;;3.46;100.00;103224.00;5055055;28;20519;-54
2022/01/17 08:25:49;;;;;;;34.25;14.90;;;;;;;3.47;100.00;103220.22;5055504;28;20025;-53
2022/01/17 08:28:14;;;;;;;29.85;15.02;;;;;;;3.54;100.00;103217.53;5055527;28;20059;-52
2022/01/17 08:30:40;;;;;;;34.78;15.20;;;;;;;3.59;100.00;103220.50;5055217;28;20036;-53
2022/01/17 08:33:05;;;;;;;32.05;15.00;;;;;;;3.63;100.00;103224.53;5055352;28;20036;-51
2022/01/17 08:35:31;;;;;;;31.77;14.50;;;;;;;3.60;100.00;103230.41;5055358;28;20029;-52
2022/01/17 08:37:56;;;;;;;33.35;15.90;;;;;;;3.63;100.00;103224.53;5055231;28;20029;-51
2022/01/17 08:40:22;;;;;;;27.98;14.43;;;;;;;3.62;100.00;103214.63;5055351;28;20082;-50
2022/01/17 08:42:49;;;;;;;29.25;14.57;;;;;;;3.66;100.00;103196.75;5055423;28;20033;-54
2022/01/17 08:45:15;;;;;;;33.17;15.48;;;;;;;3.74;100.00;103203.94;5055174;28;20098;-52
2022/01/17 08:47:46;;;;;;;33.15;15.57;;;;;;;3.74;100.00;103202.03;5055034;28;20021;-54
2022/01/17 08:50:12;;;;;;;31.02;15.45;;;;;;;3.82;100.00;103200.22;5054569;28;20041;-52
2022/01/17 08:52:37;;;;;;;33.35;16.77;;;;;;;3.84;100.00;103200.84;5054851;28;20031;-51
2022/01/17 08:55:02;;;;;;;31.00;15.63;;;;;;;3.87;100.00;103209.47;5054960;28;20025;-54
2022/01/17 08:57:28;;;;;;;32.35;15.82;;;;;;;3.96;100.00;103221.13;5054879;28;20534;-55
2022/01/17 08:59:53;;;;;;;32.97;14.63;;;;;;;4.02;100.00;103214.84;5054918;28;20033;-52
2022/01/17 09:02:18;;;;;;;34.63;16.98;;;;;;;4.08;100.00;103223.31;5054759;28;20376;-53
2022/01/17 09:04:43;;;;;;;32.72;16.27;;;;;;;4.08;100.00;103218.66;5054625;28;20029;-55
2022/01/17 09:07:10;;;;;;;34.95;16.77;;;;;;;4.15;100.00;103222.28;5054627;28;20051;-54
2022/01/17 09:09:38;;;;;;;33.88;15.95;;;;;;;4.24;100.00;103225.69;5054507;28;20032;-54
2022/01/17 09:12:06;;;;;;;33.50;15.85;;;;;;;4.31;100.00;103226.53;5054946;28;20037;-54
2022/01/17 09:14:31;;;;;;;33.13;14.82;;;;;;;4.46;100.00;103231.03;5054443;28;20032;-55
2022/01/17 09:16:56;;;;;;;30.23;14.75;;;;;;;4.47;100.00;103235.47;5054429;28;20021;-54
2022/01/17 09:19:22;;;;;;;32.65;15.60;;;;;;;4.56;100.00;103249.81;5054547;28;20029;-52
2022/01/17 09:21:47;;;;;;;33.10;17.15;;;;;;;4.59;100.00;103257.63;5054390;28;20112;-56
2022/01/17 09:24:12;;;;;;;30.92;14.60;;;;;;;4.61;100.00;103252.81;5054231;28;20028;-53
2022/01/17 09:26:38;;;;;;;33.88;14.85;;;;;;;4.69;100.00;103260.84;5054352;28;20040;-55
2022/01/17 09:29:03;;;;;;;30.40;14.52;;;;;;;4.75;100.00;103264.66;5052745;28;20032;-54
2022/01/17 09:31:29;;;;;;;29.38;13.90;;;;;;;4.80;100.00;103253.88;5054055;28;20158;-55
2022/01/17 09:33:54;;;;;;;28.77;13.68;;;;;;;4.79;100.00;103261.28;5053214;28;20094;-51
2022/01/17 09:36:21;;;;;;;30.92;14.23;;;;;;;4.90;100.00;103250.75;5054149;28;20381;-53
2022/01/17 09:38:46;;;;;;;32.13;13.50;;;;;;;4.90;99.71;103248.03;5054328;28;20037;-53
2022/01/17 09:41:11;;;;;;;31.75;14.15;;;;;;;4.89;99.91;103249.91;5053924;28;20029;-53
2022/01/17 09:43:37;;;;;;;30.25;13.20;;;;;;;4.90;99.10;103261.72;5053819;28;20020;-54
2022/01/17 09:46:03;;;;;;;27.98;13.60;;;;;;;4.86;100.00;103269.53;5054168;28;20033;-54
2022/01/17 09:48:36;;;;;;;30.83;13.73;;;;;;;4.92;99.47;103276.06;5053711;28;20051;-52
2022/01/17 09:51:41;;;;;;;29.80;13.35;;;;;;;4.88;99.78;103274.81;5053923;28;20057;-53
2022/01/17 09:54:07;;;;;;;;;;;;;;;5.02;98.81;103292.97;5054370;28;20025;-52
2022/01/17 09:56:33;;;;;;;29.77;11.82;;;;;;;5.05;97.49;103295.31;5053475;28;20264;-51
2022/01/17 09:58:58;;;;;;;29.27;12.70;;;;;;;4.96;98.35;103302.88;5053757;28;20021;-54
2022/01/17 10:01:25;;;;;;;29.35;13.52;;;;;;;4.97;99.12;103314.72;5053594;28;20086;-55
2022/01/17 10:03:52;;;;;;;26.70;12.07;;;;;;;5.02;98.91;103311.34;5053592;28;20044;-52
2022/01/17 10:06:18;;;;;;;30.88;12.52;;;;;;;5.08;98.09;103294.91;5053598;28;20376;-56
2022/01/17 10:08:44;;;;;;;30.90;13.27;;;;;;;5.06;97.48;103312.59;5053641;28;20032;-55
2022/01/17 10:11:15;;;;;;;30.23;13.13;;;;;;;5.04;98.35;103299.09;5053270;28;20025;-54
2022/01/17 10:13:47;;;;;;;30.92;12.60;;;;;;;5.02;98.60;103286.66;5053376;28;20365;-55
2022/01/17 10:16:16;;;;;;;27.73;12.18;;;;;;;5.03;98.60;103291.09;5053619;28;20108;-52
2022/01/17 10:18:48;;;;;;;26.52;11.20;;;;;;;5.09;98.63;103292.97;5053593;28;20029;-55
2022/01/17 10:21:49;;;;;;;27.30;11.23;;;;;;;5.21;98.11;103293.19;5053864;28;20460;-53
2022/01/17 10:35:27;;;;;;;25.20;9.65;;;;;;;5.39;97.10;103301.66;5053308;28;20067;-52
2022/01/17 10:37:57;;;;;;;28.20;9.88;;;;;;;5.40;97.17;103319.00;5053265;28;20041;-54
2022/01/17 10:40:24;;;;;;;28.85;11.48;;;;;;;5.45;97.37;103319.19;5052991;28;20086;-55
2022/01/17 10:42:50;;;;;;;27.38;9.13;;;;;;;5.56;96.40;103325.97;5052955;28;20503;-52
2022/01/17 10:45:23;;;;;;;26.60;9.70;;;;;;;5.59;95.77;103318.16;5052902;28;20017;-55
2022/01/17 10:47:51;;;;;;;24.67;9.80;;;;;;;5.49;96.59;103304.00;5052921;28;20024;-54
2022/01/17 10:50:30;;;;;;;25.65;10.00;;;;;;;5.55;95.96;103316.03;5052520;28;20131;-55
2022/01/17 10:52:58;;;;;;;31.83;10.88;;;;;;;5.55;96.04;103308.63;5052900;28;20037;-53
2022/01/17 10:55:30;;;;;;;27.35;9.63;;;;;;;5.61;95.12;103315.19;5053169;28;20067;-54
2022/01/17 10:58:02;;;;;;;26.52;9.07;;;;;;;5.74;94.58;103323.44;5052913;28;20400;-54
2022/01/17 11:00:30;;;;;;;23.30;8.80;;;;;;;5.68;94.74;103324.25;5052855;28;20476;-52
2022/01/17 11:02:59;;;;;;;28.80;8.98;;;;;;;5.67;95.42;103325.31;5052932;28;20079;-53
2022/01/17 11:05:27;;;;;;;26.00;8.88;;;;;;;5.75;94.61;103348.97;5052780;28;20043;-55
2022/01/17 11:07:55;;;;;;;27.15;9.48;;;;;;;5.78;93.67;103343.91;5052923;28;20029;-53
2022/01/17 11:10:27;;;;;;;23.02;8.20;;;;;;;5.80;94.66;103357.44;5052760;28;20468;-54
2022/01/17 11:12:54;;;;;;;26.75;8.40;;;;;;;5.87;93.46;103352.78;5052609;28;20067;-54
2022/01/17 11:15:20;;;;;;;26.75;9.77;;;;;;;5.75;94.03;103358.09;5052553;28;20076;-52
2022/01/17 11:17:50;;;;;;;28.30;8.80;;;;;;;5.78;93.71;103352.16;5052778;28;20472;-53
2022/01/17 11:20:16;;;;;;;22.90;8.18;;;;;;;5.86;93.73;103356.59;5052452;28;20033;-54
2022/01/17 11:22:44;;;;;;;27.83;9.52;;;;;;;5.77;93.37;103357.88;5052591;28;20479;-54
2022/01/17 11:25:19;;;;;;;23.10;9.18;;;;;;;5.87;94.15;103338.19;5052529;28;20078;-52
2022/01/17 11:27:45;;;;;;;25.05;8.82;;;;;;;5.91;93.51;103347.72;5052689;28;20029;-52
2022/01/17 11:30:11;;;;;;;29.95;10.50;;;;;;;5.91;93.60;103329.31;5051214;28;20021;-51
2022/01/17 11:32:37;;;;;;;27.95;9.60;;;;;;;5.94;93.55;103333.56;5052397;28;20025;-54
2022/01/17 11:35:03;;;;;;;26.13;8.13;;;;;;;5.98;92.91;103331.22;5052509;28;20028;-54
2022/01/17 11:37:36;;;;;;;24.23;8.63;;;;;;;5.94;93.56;103315.16;5052262;28;20033;-55
2022/01/17 11:40:04;;;;;;;24.20;8.15;;;;;;;5.98;93.00;103312.00;5052534;28;20072;-54